sensor_id;sensor_type;location;lat;lon;timestamp;temperature;humidity
8910;DHT22;4490;49.072;8.804;2023-04-01T00:00:54;11.10;92.90
8910;DHT22;4490;49.072;8.804;2023-04-01T00:03:21;11.10;93.00
8910;DHT22;4490;49.072;8.804;2023-04-01T00:05:47;11.20;93.30
8910;DHT22;4490;49.072;8.804;2023-04-01T00:08:13;11.10;93.20
8910;DHT22;4490;49.072;8.804;2023-04-01T00:10:39;11.10;93.30
8910;DHT22;4490;49.072;8.804;2023-04-01T00:13:05;11.10;93.60
8910;DHT22;4490;49.072;8.804;2023-04-01T00:15:31;11.20;93.60
8910;DHT22;4490;49.072;8.804;2023-04-01T00:17:57;11.20;93.80
8910;DHT22;4490;49.072;8.804;2023-04-01T00:20:23;11.20;93.90
8910;DHT22;4490;49.072;8.804;2023-04-01T00:22:48;11.10;93.90
8910;DHT22;4490;49.072;8.804;2023-04-01T00:25:14;11.10;94.10
8910;DHT22;4490;49.072;8.804;2023-04-01T00:27:40;11.10;94.20
8910;DHT22;4490;49.072;8.804;2023-04-01T00:30:07;11.10;94.50
8910;DHT22;4490;49.072;8.804;2023-04-01T00:32:34;11.00;94.60
8910;DHT22;4490;49.072;8.804;2023-04-01T00:35:00;11.00;94.40
8910;DHT22;4490;49.072;8.804;2023-04-01T00:37:27;11.00;94.60
8910;DHT22;4490;49.072;8.804;2023-04-01T00:39:53;11.00;94.80
8910;DHT22;4490;49.072;8.804;2023-04-01T00:42:19;11.00;94.80
8910;DHT22;4490;49.072;8.804;2023-04-01T00:44:55;11.00;95.10
8910;DHT22;4490;49.072;8.804;2023-04-01T00:47:21;11.00;95.10
8910;DHT22;4490;49.072;8.804;2023-04-01T00:49:50;11.00;95.10
8910;DHT22;4490;49.072;8.804;2023-04-01T00:52:18;11.00;95.20
8910;DHT22;4490;49.072;8.804;2023-04-01T00:54:47;11.10;95.40
8910;DHT22;4490;49.072;8.804;2023-04-01T00:57:25;11.10;95.30
8910;DHT22;4490;49.072;8.804;2023-04-01T00:59:54;11.10;95.10
8910;DHT22;4490;49.072;8.804;2023-04-01T01:02:22;11.10;95.20
8910;DHT22;4490;49.072;8.804;2023-04-01T01:04:48;11.10;95.10
8910;DHT22;4490;49.072;8.804;2023-04-01T01:12:53;11.10;95.20
8910;DHT22;4490;49.072;8.804;2023-04-01T01:15:47;11.10;95.10
8910;DHT22;4490;49.072;8.804;2023-04-01T01:18:37;11.10;94.60
8910;DHT22;4490;49.072;8.804;2023-04-01T01:32:25;11.00;94.40
8910;DHT22;4490;49.072;8.804;2023-04-01T01:37:40;11.10;94.40
8910;DHT22;4490;49.072;8.804;2023-04-01T01:40:10;11.10;94.30
8910;DHT22;4490;49.072;8.804;2023-04-01T01:42:39;11.10;94.10
8910;DHT22;4490;49.072;8.804;2023-04-01T01:45:07;11.10;94.00
8910;DHT22;4490;49.072;8.804;2023-04-01T01:47:34;11.10;94.10
8910;DHT22;4490;49.072;8.804;2023-04-01T01:50:01;11.10;94.10
8910;DHT22;4490;49.072;8.804;2023-04-01T01:52:28;11.10;94.30
8910;DHT22;4490;49.072;8.804;2023-04-01T01:54:56;11.10;95.00
8910;DHT22;4490;49.072;8.804;2023-04-01T01:57:41;11.10;96.20
8910;DHT22;4490;49.072;8.804;2023-04-01T02:00:10;11.10;97.10
8910;DHT22;4490;49.072;8.804;2023-04-01T02:02:41;11.00;96.70
8910;DHT22;4490;49.072;8.804;2023-04-01T02:05:10;11.00;96.80
8910;DHT22;4490;49.072;8.804;2023-04-01T02:07:37;10.90;97.20
8910;DHT22;4490;49.072;8.804;2023-04-01T02:10:05;10.90;98.30
8910;DHT22;4490;49.072;8.804;2023-04-01T02:12:33;10.80;99.10
8910;DHT22;4490;49.072;8.804;2023-04-01T02:15:06;10.80;99.90
8910;DHT22;4490;49.072;8.804;2023-04-01T02:17:34;10.70;99.90
8910;DHT22;4490;49.072;8.804;2023-04-01T02:20:19;10.70;99.90
8910;DHT22;4490;49.072;8.804;2023-04-01T02:22:54;10.70;99.70
8910;DHT22;4490;49.072;8.804;2023-04-01T02:25:25;10.70;99.60
8910;DHT22;4490;49.072;8.804;2023-04-01T02:27:53;10.70;98.60
8910;DHT22;4490;49.072;8.804;2023-04-01T02:30:21;10.70;98.50
8910;DHT22;4490;49.072;8.804;2023-04-01T02:32:47;10.70;98.50
8910;DHT22;4490;49.072;8.804;2023-04-01T02:35:16;10.70;98.40
8910;DHT22;4490;49.072;8.804;2023-04-01T02:37:43;10.70;98.30
8910;DHT22;4490;49.072;8.804;2023-04-01T02:40:12;10.70;97.90
8910;DHT22;4490;49.072;8.804;2023-04-01T02:42:37;10.70;97.10
8910;DHT22;4490;49.072;8.804;2023-04-01T02:45:04;10.70;96.80
8910;DHT22;4490;49.072;8.804;2023-04-01T02:47:30;10.70;96.70
8910;DHT22;4490;49.072;8.804;2023-04-01T02:49:56;10.70;96.30
8910;DHT22;4490;49.072;8.804;2023-04-01T02:52:25;10.70;95.70
8910;DHT22;4490;49.072;8.804;2023-04-01T02:54:51;10.70;95.70
8910;DHT22;4490;49.072;8.804;2023-04-01T02:57:16;10.70;95.40
8910;DHT22;4490;49.072;8.804;2023-04-01T02:59:42;10.70;95.30
8910;DHT22;4490;49.072;8.804;2023-04-01T03:02:08;10.70;95.00
8910;DHT22;4490;49.072;8.804;2023-04-01T03:04:33;10.60;94.50
8910;DHT22;4490;49.072;8.804;2023-04-01T03:06:59;10.60;94.60
8910;DHT22;4490;49.072;8.804;2023-04-01T03:09:25;10.60;94.40
8910;DHT22;4490;49.072;8.804;2023-04-01T03:11:50;10.60;93.80
8910;DHT22;4490;49.072;8.804;2023-04-01T03:14:16;10.60;93.60
8910;DHT22;4490;49.072;8.804;2023-04-01T03:16:42;10.60;93.40
8910;DHT22;4490;49.072;8.804;2023-04-01T03:19:07;10.60;93.40
8910;DHT22;4490;49.072;8.804;2023-04-01T03:21:33;10.60;93.20
8910;DHT22;4490;49.072;8.804;2023-04-01T03:23:59;10.60;93.00
8910;DHT22;4490;49.072;8.804;2023-04-01T03:26:25;10.50;92.90
8910;DHT22;4490;49.072;8.804;2023-04-01T03:28:52;10.60;93.20
8910;DHT22;4490;49.072;8.804;2023-04-01T03:31:19;10.60;93.30
8910;DHT22;4490;49.072;8.804;2023-04-01T03:33:45;10.60;93.30
8910;DHT22;4490;49.072;8.804;2023-04-01T03:36:10;10.60;93.70
8910;DHT22;4490;49.072;8.804;2023-04-01T03:38:39;10.60;93.40
8910;DHT22;4490;49.072;8.804;2023-04-01T03:41:05;10.60;93.70
8910;DHT22;4490;49.072;8.804;2023-04-01T03:43:30;10.60;93.70
8910;DHT22;4490;49.072;8.804;2023-04-01T03:45:56;10.60;94.00
8910;DHT22;4490;49.072;8.804;2023-04-01T03:48:23;10.50;94.00
8910;DHT22;4490;49.072;8.804;2023-04-01T03:50:49;10.60;94.10
8910;DHT22;4490;49.072;8.804;2023-04-01T03:53:15;10.50;94.10
8910;DHT22;4490;49.072;8.804;2023-04-01T03:55:41;10.60;94.30
8910;DHT22;4490;49.072;8.804;2023-04-01T03:58:07;10.60;94.20
8910;DHT22;4490;49.072;8.804;2023-04-01T04:00:33;10.60;94.40
8910;DHT22;4490;49.072;8.804;2023-04-01T04:02:59;10.60;94.20
8910;DHT22;4490;49.072;8.804;2023-04-01T04:05:25;10.60;94.20
8910;DHT22;4490;49.072;8.804;2023-04-01T04:07:52;10.60;94.10
8910;DHT22;4490;49.072;8.804;2023-04-01T04:10:18;10.60;94.00
8910;DHT22;4490;49.072;8.804;2023-04-01T04:12:44;10.60;93.70
8910;DHT22;4490;49.072;8.804;2023-04-01T04:15:10;10.60;93.60
8910;DHT22;4490;49.072;8.804;2023-04-01T04:17:36;10.60;93.60
8910;DHT22;4490;49.072;8.804;2023-04-01T04:20:02;10.60;93.40
8910;DHT22;4490;49.072;8.804;2023-04-01T04:22:28;10.60;93.30
8910;DHT22;4490;49.072;8.804;2023-04-01T04:24:53;10.60;93.30
8910;DHT22;4490;49.072;8.804;2023-04-01T04:27:19;10.60;93.40
8910;DHT22;4490;49.072;8.804;2023-04-01T04:29:45;10.60;93.20
8910;DHT22;4490;49.072;8.804;2023-04-01T04:32:10;10.60;93.20
8910;DHT22;4490;49.072;8.804;2023-04-01T04:34:36;10.60;93.10
8910;DHT22;4490;49.072;8.804;2023-04-01T04:37:02;10.60;93.00
8910;DHT22;4490;49.072;8.804;2023-04-01T04:39:28;10.60;93.00
8910;DHT22;4490;49.072;8.804;2023-04-01T04:41:54;10.60;93.10
8910;DHT22;4490;49.072;8.804;2023-04-01T04:44:20;10.60;93.10
8910;DHT22;4490;49.072;8.804;2023-04-01T04:46:45;10.60;93.00
8910;DHT22;4490;49.072;8.804;2023-04-01T04:49:11;10.60;92.90
8910;DHT22;4490;49.072;8.804;2023-04-01T04:51:37;10.60;92.60
8910;DHT22;4490;49.072;8.804;2023-04-01T04:54:04;10.70;92.40
8910;DHT22;4490;49.072;8.804;2023-04-01T04:56:30;10.70;92.40
8910;DHT22;4490;49.072;8.804;2023-04-01T04:58:56;10.70;92.20
8910;DHT22;4490;49.072;8.804;2023-04-01T05:01:22;10.80;92.20
8910;DHT22;4490;49.072;8.804;2023-04-01T05:03:48;10.80;91.90
8910;DHT22;4490;49.072;8.804;2023-04-01T05:06:15;10.80;91.90
8910;DHT22;4490;49.072;8.804;2023-04-01T05:08:43;10.80;91.70
8910;DHT22;4490;49.072;8.804;2023-04-01T05:11:11;10.80;91.60
8910;DHT22;4490;49.072;8.804;2023-04-01T05:13:37;10.80;91.50
8910;DHT22;4490;49.072;8.804;2023-04-01T05:16:03;10.80;91.50
8910;DHT22;4490;49.072;8.804;2023-04-01T05:18:29;10.80;91.60
8910;DHT22;4490;49.072;8.804;2023-04-01T05:20:55;10.80;91.40
8910;DHT22;4490;49.072;8.804;2023-04-01T05:23:22;10.80;91.40
8910;DHT22;4490;49.072;8.804;2023-04-01T05:25:48;10.80;91.30
8910;DHT22;4490;49.072;8.804;2023-04-01T05:28:15;10.80;91.30
8910;DHT22;4490;49.072;8.804;2023-04-01T05:30:41;10.80;91.30
8910;DHT22;4490;49.072;8.804;2023-04-01T05:33:08;10.80;91.30
8910;DHT22;4490;49.072;8.804;2023-04-01T05:35:34;10.90;91.30
8910;DHT22;4490;49.072;8.804;2023-04-01T05:38:01;10.90;91.20
8910;DHT22;4490;49.072;8.804;2023-04-01T05:40:27;10.90;91.20
8910;DHT22;4490;49.072;8.804;2023-04-01T05:42:53;10.90;91.20
8910;DHT22;4490;49.072;8.804;2023-04-01T05:45:19;10.90;91.20
8910;DHT22;4490;49.072;8.804;2023-04-01T05:47:44;10.90;91.10
8910;DHT22;4490;49.072;8.804;2023-04-01T05:50:10;10.90;91.10
8910;DHT22;4490;49.072;8.804;2023-04-01T05:52:37;10.90;91.20
8910;DHT22;4490;49.072;8.804;2023-04-01T05:55:03;10.90;91.30
8910;DHT22;4490;49.072;8.804;2023-04-01T05:57:30;11.00;91.30
8910;DHT22;4490;49.072;8.804;2023-04-01T05:59:55;11.00;91.50
8910;DHT22;4490;49.072;8.804;2023-04-01T06:02:21;11.00;91.70
8910;DHT22;4490;49.072;8.804;2023-04-01T06:04:47;11.00;92.10
8910;DHT22;4490;49.072;8.804;2023-04-01T06:07:14;11.00;92.50
8910;DHT22;4490;49.072;8.804;2023-04-01T06:09:41;11.00;93.10
8910;DHT22;4490;49.072;8.804;2023-04-01T06:12:39;10.90;93.30
8910;DHT22;4490;49.072;8.804;2023-04-01T06:15:30;10.90;94.00
8910;DHT22;4490;49.072;8.804;2023-04-01T06:26:39;10.80;95.70
8910;DHT22;4490;49.072;8.804;2023-04-01T06:35:11;10.60;98.70
8910;DHT22;4490;49.072;8.804;2023-04-01T06:46:15;10.60;99.80
8910;DHT22;4490;49.072;8.804;2023-04-01T06:52:00;10.60;99.90
8910;DHT22;4490;49.072;8.804;2023-04-01T06:57:05;10.70;99.90
8910;DHT22;4490;49.072;8.804;2023-04-01T06:59:37;10.70;99.90
8910;DHT22;4490;49.072;8.804;2023-04-01T07:02:19;10.70;99.90
8910;DHT22;4490;49.072;8.804;2023-04-01T07:04:50;10.70;99.90
8910;DHT22;4490;49.072;8.804;2023-04-01T07:07:28;10.70;99.90
8910;DHT22;4490;49.072;8.804;2023-04-01T07:09:56;10.70;99.90
8910;DHT22;4490;49.072;8.804;2023-04-01T07:14:58;10.70;99.90
8910;DHT22;4490;49.072;8.804;2023-04-01T07:17:30;10.70;99.90
8910;DHT22;4490;49.072;8.804;2023-04-01T07:22:46;10.70;99.90
8910;DHT22;4490;49.072;8.804;2023-04-01T07:25:17;10.70;99.90
8910;DHT22;4490;49.072;8.804;2023-04-01T07:27:45;10.60;99.90
8910;DHT22;4490;49.072;8.804;2023-04-01T07:30:17;10.70;99.90
8910;DHT22;4490;49.072;8.804;2023-04-01T07:33:04;10.60;99.90
8910;DHT22;4490;49.072;8.804;2023-04-01T07:36:17;10.70;99.90
8910;DHT22;4490;49.072;8.804;2023-04-01T07:43:44;10.50;99.90
8910;DHT22;4490;49.072;8.804;2023-04-01T07:49:15;10.50;99.90
8910;DHT22;4490;49.072;8.804;2023-04-01T07:54:29;10.50;99.90
8910;DHT22;4490;49.072;8.804;2023-04-01T07:57:00;10.50;99.90
8910;DHT22;4490;49.072;8.804;2023-04-01T08:02:52;10.40;99.90
8910;DHT22;4490;49.072;8.804;2023-04-01T08:10:58;10.30;99.90
8910;DHT22;4490;49.072;8.804;2023-04-01T08:16:37;10.10;99.90
8910;DHT22;4490;49.072;8.804;2023-04-01T08:22:00;10.00;99.90
8910;DHT22;4490;49.072;8.804;2023-04-01T08:24:43;9.90;99.90
8910;DHT22;4490;49.072;8.804;2023-04-01T08:27:39;9.90;99.90
8910;DHT22;4490;49.072;8.804;2023-04-01T08:30:49;9.90;99.90
8910;DHT22;4490;49.072;8.804;2023-04-01T08:33:31;9.90;99.90
8910;DHT22;4490;49.072;8.804;2023-04-01T08:36:10;9.90;99.90
8910;DHT22;4490;49.072;8.804;2023-04-01T08:39:04;9.90;99.90
8910;DHT22;4490;49.072;8.804;2023-04-01T08:47:00;10.00;99.90
8910;DHT22;4490;49.072;8.804;2023-04-01T08:52:57;10.10;99.90
8910;DHT22;4490;49.072;8.804;2023-04-01T09:00:57;10.40;99.90
8910;DHT22;4490;49.072;8.804;2023-04-01T09:16:41;10.90;99.90
8910;DHT22;4490;49.072;8.804;2023-04-01T09:27:04;11.10;99.90
8910;DHT22;4490;49.072;8.804;2023-04-01T09:43:09;11.40;99.90
8910;DHT22;4490;49.072;8.804;2023-04-01T09:54:01;11.40;99.90
8910;DHT22;4490;49.072;8.804;2023-04-01T10:30:44;11.40;99.90
8910;DHT22;4490;49.072;8.804;2023-04-01T10:39:08;11.50;99.90
8910;DHT22;4490;49.072;8.804;2023-04-01T11:00:04;11.60;99.90
8910;DHT22;4490;49.072;8.804;2023-04-01T11:02:40;11.70;99.90
8910;DHT22;4490;49.072;8.804;2023-04-01T11:36:43;11.80;99.90
8910;DHT22;4490;49.072;8.804;2023-04-01T11:44:56;11.90;99.90
8910;DHT22;4490;49.072;8.804;2023-04-01T11:50:21;11.80;99.90
8910;DHT22;4490;49.072;8.804;2023-04-01T11:53:23;11.80;99.90
8910;DHT22;4490;49.072;8.804;2023-04-01T12:01:23;11.70;99.90
8910;DHT22;4490;49.072;8.804;2023-04-01T12:04:18;11.70;99.90
8910;DHT22;4490;49.072;8.804;2023-04-01T12:06:59;11.70;99.90
8910;DHT22;4490;49.072;8.804;2023-04-01T12:12:38;11.60;99.90
8910;DHT22;4490;49.072;8.804;2023-04-01T12:15:26;11.50;99.90
8910;DHT22;4490;49.072;8.804;2023-04-01T12:20:44;11.50;99.90
8910;DHT22;4490;49.072;8.804;2023-04-01T12:29:07;11.40;99.90
8910;DHT22;4490;49.072;8.804;2023-04-01T12:31:56;11.40;99.90
8910;DHT22;4490;49.072;8.804;2023-04-01T12:56:38;11.60;99.90
8910;DHT22;4490;49.072;8.804;2023-04-01T12:59:27;11.60;99.90
8910;DHT22;4490;49.072;8.804;2023-04-01T13:02:21;11.60;99.90
8910;DHT22;4490;49.072;8.804;2023-04-01T13:05:37;11.60;99.90
8910;DHT22;4490;49.072;8.804;2023-04-01T13:11:15;11.40;99.90
8910;DHT22;4490;49.072;8.804;2023-04-01T13:16:50;11.30;99.90
8910;DHT22;4490;49.072;8.804;2023-04-01T13:19:31;11.30;99.90
8910;DHT22;4490;49.072;8.804;2023-04-01T13:22:06;11.40;99.90
8910;DHT22;4490;49.072;8.804;2023-04-01T13:24:45;11.40;99.90
8910;DHT22;4490;49.072;8.804;2023-04-01T13:27:41;11.50;99.90
8910;DHT22;4490;49.072;8.804;2023-04-01T13:30:27;11.40;99.90
8910;DHT22;4490;49.072;8.804;2023-04-01T13:33:04;11.40;99.90
8910;DHT22;4490;49.072;8.804;2023-04-01T13:35:48;11.40;99.90
8910;DHT22;4490;49.072;8.804;2023-04-01T13:43:58;11.30;99.90
8910;DHT22;4490;49.072;8.804;2023-04-01T13:49:30;11.30;99.90
8910;DHT22;4490;49.072;8.804;2023-04-01T13:54:55;11.30;99.90
8910;DHT22;4490;49.072;8.804;2023-04-01T14:05:53;11.30;99.90
8910;DHT22;4490;49.072;8.804;2023-04-01T14:11:32;11.30;99.90
8910;DHT22;4490;49.072;8.804;2023-04-01T14:14:31;11.30;99.90
8910;DHT22;4490;49.072;8.804;2023-04-01T14:22:46;11.40;99.90
8910;DHT22;4490;49.072;8.804;2023-04-01T14:31:23;11.50;99.90
8910;DHT22;4490;49.072;8.804;2023-04-01T14:34:15;11.50;99.90
8910;DHT22;4490;49.072;8.804;2023-04-01T14:37:10;11.50;99.90
8910;DHT22;4490;49.072;8.804;2023-04-01T14:42:59;11.60;99.90
8910;DHT22;4490;49.072;8.804;2023-04-01T14:51:23;11.50;99.90
8910;DHT22;4490;49.072;8.804;2023-04-01T14:56:38;11.50;99.90
8910;DHT22;4490;49.072;8.804;2023-04-01T14:59:17;11.50;99.90
8910;DHT22;4490;49.072;8.804;2023-04-01T15:18:54;11.40;99.90
8910;DHT22;4490;49.072;8.804;2023-04-01T15:24:47;11.40;99.90
8910;DHT22;4490;49.072;8.804;2023-04-01T15:30:37;11.40;99.90
8910;DHT22;4490;49.072;8.804;2023-04-01T15:33:11;11.30;99.90
8910;DHT22;4490;49.072;8.804;2023-04-01T15:41:03;11.50;99.90
8910;DHT22;4490;49.072;8.804;2023-04-01T15:48:41;11.50;99.90
8910;DHT22;4490;49.072;8.804;2023-04-01T16:00:27;11.60;99.90
8910;DHT22;4490;49.072;8.804;2023-04-01T16:11:53;11.70;99.90
8910;DHT22;4490;49.072;8.804;2023-04-01T16:21:00;11.60;99.90
8910;DHT22;4490;49.072;8.804;2023-04-01T16:23:36;11.60;99.90
8910;DHT22;4490;49.072;8.804;2023-04-01T16:26:16;11.70;99.90
8910;DHT22;4490;49.072;8.804;2023-04-01T16:36:41;11.60;99.90
8910;DHT22;4490;49.072;8.804;2023-04-01T16:39:33;11.60;99.90
8910;DHT22;4490;49.072;8.804;2023-04-01T16:44:49;11.60;99.90
8910;DHT22;4490;49.072;8.804;2023-04-01T16:47:20;11.60;99.90
8910;DHT22;4490;49.072;8.804;2023-04-01T16:49:54;11.60;99.90
8910;DHT22;4490;49.072;8.804;2023-04-01T16:55:15;11.60;99.90
8910;DHT22;4490;49.072;8.804;2023-04-01T16:57:57;11.60;99.90
8910;DHT22;4490;49.072;8.804;2023-04-01T17:00:49;11.60;99.90
8910;DHT22;4490;49.072;8.804;2023-04-01T17:03:31;11.70;99.90
8910;DHT22;4490;49.072;8.804;2023-04-01T17:12:08;11.60;99.90
8910;DHT22;4490;49.072;8.804;2023-04-01T17:37:18;11.40;99.90
8910;DHT22;4490;49.072;8.804;2023-04-01T17:42:41;11.30;99.90
8910;DHT22;4490;49.072;8.804;2023-04-01T17:45:21;11.20;99.90
8910;DHT22;4490;49.072;8.804;2023-04-01T17:59:36;11.00;99.90
8910;DHT22;4490;49.072;8.804;2023-04-01T18:08:00;11.00;99.90
8910;DHT22;4490;49.072;8.804;2023-04-01T18:13:42;10.90;99.90
8910;DHT22;4490;49.072;8.804;2023-04-01T18:16:29;10.90;99.90
8910;DHT22;4490;49.072;8.804;2023-04-01T18:21:53;10.90;99.90
8910;DHT22;4490;49.072;8.804;2023-04-01T18:27:17;10.80;99.90
8910;DHT22;4490;49.072;8.804;2023-04-01T18:32:52;10.80;99.90
8910;DHT22;4490;49.072;8.804;2023-04-01T18:38:44;10.80;99.90
8910;DHT22;4490;49.072;8.804;2023-04-01T18:52:17;10.70;99.90
8910;DHT22;4490;49.072;8.804;2023-04-01T18:58:06;10.70;99.90
8910;DHT22;4490;49.072;8.804;2023-04-01T19:00:48;10.70;99.90
8910;DHT22;4490;49.072;8.804;2023-04-01T19:03:20;10.70;99.90
8910;DHT22;4490;49.072;8.804;2023-04-01T19:05:52;10.70;99.90
8910;DHT22;4490;49.072;8.804;2023-04-01T19:10:57;10.60;99.90
8910;DHT22;4490;49.072;8.804;2023-04-01T19:13:53;10.60;99.90
8910;DHT22;4490;49.072;8.804;2023-04-01T19:19:35;10.60;99.90
8910;DHT22;4490;49.072;8.804;2023-04-01T19:27:46;10.60;99.90
8910;DHT22;4490;49.072;8.804;2023-04-01T19:33:28;10.70;99.90
8910;DHT22;4490;49.072;8.804;2023-04-01T19:47:48;10.60;99.90
8910;DHT22;4490;49.072;8.804;2023-04-01T19:50:30;10.70;99.90
8910;DHT22;4490;49.072;8.804;2023-04-01T19:53:07;10.70;99.90
8910;DHT22;4490;49.072;8.804;2023-04-01T19:55:46;10.70;99.90
8910;DHT22;4490;49.072;8.804;2023-04-01T20:01:49;10.70;99.90
8910;DHT22;4490;49.072;8.804;2023-04-01T20:04:42;10.60;99.90
8910;DHT22;4490;49.072;8.804;2023-04-01T20:10:03;10.60;99.90
8910;DHT22;4490;49.072;8.804;2023-04-01T20:15:35;10.60;99.90
8910;DHT22;4490;49.072;8.804;2023-04-01T20:18:23;10.60;99.90
8910;DHT22;4490;49.072;8.804;2023-04-01T20:20:56;10.60;99.90
8910;DHT22;4490;49.072;8.804;2023-04-01T20:23:38;10.60;99.90
8910;DHT22;4490;49.072;8.804;2023-04-01T20:26:09;10.60;99.90
8910;DHT22;4490;49.072;8.804;2023-04-01T20:31:43;10.50;99.90
8910;DHT22;4490;49.072;8.804;2023-04-01T20:34:20;10.50;99.90
8910;DHT22;4490;49.072;8.804;2023-04-01T20:42:34;10.50;99.90
8910;DHT22;4490;49.072;8.804;2023-04-01T20:50:48;10.50;99.90
8910;DHT22;4490;49.072;8.804;2023-04-01T20:53:31;10.50;99.90
8910;DHT22;4490;49.072;8.804;2023-04-01T21:07:55;10.60;99.90
8910;DHT22;4490;49.072;8.804;2023-04-01T21:18:49;10.60;99.90
8910;DHT22;4490;49.072;8.804;2023-04-01T21:27:03;10.60;99.90
8910;DHT22;4490;49.072;8.804;2023-04-01T21:35:37;10.60;99.90
8910;DHT22;4490;49.072;8.804;2023-04-01T21:38:15;10.60;99.90
8910;DHT22;4490;49.072;8.804;2023-04-01T21:44:12;10.60;99.90
8910;DHT22;4490;49.072;8.804;2023-04-01T21:50:19;10.60;99.90
8910;DHT22;4490;49.072;8.804;2023-04-01T22:07:08;10.60;99.90
8910;DHT22;4490;49.072;8.804;2023-04-01T22:15:20;10.60;99.90
8910;DHT22;4490;49.072;8.804;2023-04-01T22:18:33;10.60;99.90
8910;DHT22;4490;49.072;8.804;2023-04-01T22:21:12;10.60;99.90
8910;DHT22;4490;49.072;8.804;2023-04-01T22:26:46;10.50;99.90
8910;DHT22;4490;49.072;8.804;2023-04-01T22:32:13;10.50;99.90
8910;DHT22;4490;49.072;8.804;2023-04-01T22:35:06;10.50;99.90
8910;DHT22;4490;49.072;8.804;2023-04-01T22:38:07;10.50;99.90
8910;DHT22;4490;49.072;8.804;2023-04-01T22:48:41;10.40;99.90
8910;DHT22;4490;49.072;8.804;2023-04-01T22:56:41;10.40;99.90
8910;DHT22;4490;49.072;8.804;2023-04-01T22:59:19;10.40;99.90
8910;DHT22;4490;49.072;8.804;2023-04-01T23:01:57;10.40;99.90
8910;DHT22;4490;49.072;8.804;2023-04-01T23:04:31;10.40;99.90
8910;DHT22;4490;49.072;8.804;2023-04-01T23:07:05;10.40;99.90
8910;DHT22;4490;49.072;8.804;2023-04-01T23:09:38;10.40;99.90
8910;DHT22;4490;49.072;8.804;2023-04-01T23:12:08;10.30;99.90
8910;DHT22;4490;49.072;8.804;2023-04-01T23:14:43;10.40;99.90
8910;DHT22;4490;49.072;8.804;2023-04-01T23:17:32;10.30;99.90
8910;DHT22;4490;49.072;8.804;2023-04-01T23:31:28;10.30;99.90
8910;DHT22;4490;49.072;8.804;2023-04-01T23:33:57;10.30;99.90
8910;DHT22;4490;49.072;8.804;2023-04-01T23:36:23;10.30;99.90
8910;DHT22;4490;49.072;8.804;2023-04-01T23:38:50;10.30;99.90
8910;DHT22;4490;49.072;8.804;2023-04-01T23:41:23;10.30;99.90
8910;DHT22;4490;49.072;8.804;2023-04-01T23:43:59;10.30;99.90
8910;DHT22;4490;49.072;8.804;2023-04-01T23:46:26;10.30;99.90
8910;DHT22;4490;49.072;8.804;2023-04-01T23:48:52;10.30;99.90
8910;DHT22;4490;49.072;8.804;2023-04-01T23:51:22;10.30;99.90
8910;DHT22;4490;49.072;8.804;2023-04-01T23:54:01;10.30;99.90
8910;DHT22;4490;49.072;8.804;2023-04-01T23:56:49;10.40;99.90
8910;DHT22;4490;49.072;8.804;2023-04-01T23:59:22;10.40;99.90
